createdAt,value
2018-02-24T00:00:09.294Z,-1.93
2018-02-24T00:01:23.336Z,-1.97
2018-02-24T00:02:37.893Z,-1.89
2018-02-24T00:03:52.178Z,-1.9
2018-02-24T00:05:06.217Z,-1.97
2018-02-24T00:06:20.569Z,-2.02
2018-02-24T00:07:34.102Z,-1.87
2018-02-24T00:08:48.161Z,-1.93
2018-02-24T00:10:02.213Z,-1.94
2018-02-24T00:11:16.215Z,-1.96
2018-02-24T00:12:30.484Z,-1.92
2018-02-24T00:13:44.254Z,-1.93
2018-02-24T00:14:58.769Z,-1.93
2018-02-24T00:16:12.804Z,-2
2018-02-24T00:17:27.134Z,-1.9
2018-02-24T00:18:40.894Z,-1.89
2018-02-24T00:19:55.159Z,-1.93
2018-02-24T00:21:09.415Z,-2
2018-02-24T00:22:23.448Z,-1.93
2018-02-24T00:23:37.204Z,-2.05
2018-02-24T00:24:51.684Z,-1.97
2018-02-24T00:26:05.942Z,-1.99
2018-02-24T00:27:20.465Z,-2.05
2018-02-24T00:28:34.511Z,-2.1
2018-02-24T00:29:48.961Z,-2.08
2018-02-24T00:31:03.325Z,-2.14
2018-02-24T00:32:17.540Z,-2.04
2018-02-24T00:33:31.341Z,-2.11
2018-02-24T00:34:45.363Z,-2.15
2018-02-24T00:35:59.393Z,-2.2
2018-02-24T00:37:13.430Z,-2.2
2018-02-24T00:38:27.429Z,-2.2
2018-02-24T00:39:41.198Z,-2.18
2018-02-24T00:40:55.195Z,-2.28
2018-02-24T00:42:09.205Z,-2.22
2018-02-24T00:43:23.225Z,-2.25
2018-02-24T00:44:36.741Z,-2.22
2018-02-24T00:45:51.233Z,-2.28
2018-02-24T00:47:05.517Z,-2.32
2018-02-24T00:48:20.012Z,-2.4
2018-02-24T00:49:33.520Z,-2.32
2018-02-24T00:50:48.081Z,-2.37
2018-02-24T00:52:02.563Z,-2.4
2018-02-24T00:53:16.814Z,-2.34
2018-02-24T00:54:30.823Z,-2.42
2018-02-24T00:55:44.822Z,-2.34
2018-02-24T00:56:58.863Z,-2.36
2018-02-24T00:58:13.109Z,-2.39
2018-02-24T00:59:27.125Z,-2.42
2018-02-24T01:00:41.351Z,-2.29
2018-02-24T01:01:55.388Z,-2.47
2018-02-24T01:03:09.396Z,-2.4
2018-02-24T01:04:24.024Z,-2.47
2018-02-24T01:05:38.054Z,-2.32
2018-02-24T01:06:51.569Z,-2.36
2018-02-24T01:08:06.301Z,-2.33
2018-02-24T01:09:20.323Z,-2.36
2018-02-24T01:10:48.482Z,-2.39
2018-02-24T01:12:02.942Z,-2.37
2018-02-24T01:13:17.148Z,-2.37
2018-02-24T01:14:31.179Z,-2.36
2018-02-24T01:15:45.442Z,-2.37
2018-02-24T01:16:58.971Z,-2.34
2018-02-24T01:18:13.044Z,-2.39
2018-02-24T01:19:27.560Z,-2.42
2018-02-24T01:20:41.549Z,-2.47
2018-02-24T01:21:56.298Z,-2.51
2018-02-24T01:23:10.552Z,-2.4
2018-02-24T01:24:24.554Z,-2.45
2018-02-24T01:25:38.839Z,-2.47
2018-02-24T01:26:53.312Z,-2.39
2018-02-24T01:28:07.039Z,-2.39
2018-02-24T01:29:21.802Z,-2.44
2018-02-24T01:30:35.797Z,-2.45
2018-02-24T01:31:50.028Z,-2.54
2018-02-24T01:33:04.256Z,-2.57
2018-02-24T01:34:18.827Z,-2.51
2018-02-24T01:35:33.543Z,-2.58
2018-02-24T01:36:48.361Z,-2.63
2018-02-24T01:38:02.656Z,-2.57
2018-02-24T01:39:17.121Z,-2.63
2018-02-24T01:40:31.380Z,-2.58
2018-02-24T01:41:45.871Z,-2.66
2018-02-24T01:42:59.979Z,-2.66
2018-02-24T01:44:13.945Z,-2.62
2018-02-24T01:45:28.160Z,-2.66
2018-02-24T01:46:42.877Z,-2.63
2018-02-24T01:47:57.117Z,-2.81
2018-02-24T01:49:10.844Z,-2.66
2018-02-24T01:50:25.325Z,-2.76
2018-02-24T01:51:39.064Z,-2.76
2018-02-24T01:52:53.027Z,-2.8
2018-02-24T01:54:06.520Z,-2.76
2018-02-24T01:55:20.029Z,-2.7
2018-02-24T01:56:34.547Z,-2.69
2018-02-24T01:57:48.779Z,-2.69
2018-02-24T01:59:03.016Z,-2.73
2018-02-24T02:00:31.971Z,-2.68
2018-02-24T02:01:46.200Z,-2.76
2018-02-24T02:02:59.815Z,-2.76
2018-02-24T02:04:14.513Z,-2.76
2018-02-24T02:05:28.532Z,-2.69
2018-02-24T02:06:42.760Z,-2.81
2018-02-24T02:07:57.256Z,-2.7
2018-02-24T02:09:11.607Z,-2.8
2018-02-24T02:10:26.069Z,-2.83
2018-02-24T02:11:40.795Z,-2.86
2018-02-24T02:12:54.766Z,-2.86
2018-02-24T02:14:08.982Z,-2.87
2018-02-24T02:15:23.225Z,-2.9
2018-02-24T02:16:37.180Z,-2.9
2018-02-24T02:17:51.411Z,-2.93
2018-02-24T02:19:05.404Z,-2.89
2018-02-24T02:20:19.136Z,-2.91
2018-02-24T02:21:32.650Z,-2.9
2018-02-24T02:22:46.896Z,-2.91
2018-02-24T02:24:00.888Z,-2.99
2018-02-24T02:25:15.338Z,-3.04
2018-02-24T02:26:28.846Z,-3.05
2018-02-24T02:27:43.318Z,-3.05
2018-02-24T02:28:57.049Z,-2.99
2018-02-24T02:30:11.053Z,-2.99
2018-02-24T02:31:25.778Z,-3.05
2018-02-24T02:32:39.777Z,-3.05
2018-02-24T02:33:54.266Z,-3.07
2018-02-24T02:35:07.805Z,-3.15
2018-02-24T02:36:21.847Z,-3.17
2018-02-24T02:37:36.076Z,-3.11
2018-02-24T02:38:50.550Z,-3.14
2018-02-24T02:40:05.052Z,-3.23
2018-02-24T02:41:19.071Z,-3.2
2018-02-24T02:42:33.418Z,-3.25
2018-02-24T02:43:47.411Z,-3.23
2018-02-24T02:45:01.413Z,-3.23
2018-02-24T02:46:15.660Z,-3.23
2018-02-24T02:47:30.128Z,-3.19
2018-02-24T02:48:44.720Z,-3.23
2018-02-24T02:49:59.213Z,-3.26
2018-02-24T02:51:13.693Z,-3.32
2018-02-24T02:52:28.200Z,-3.36
2018-02-24T02:53:42.448Z,-3.33
2018-02-24T02:54:56.708Z,-3.33
2018-02-24T02:56:10.720Z,-3.32
2018-02-24T02:57:24.964Z,-3.33
2018-02-24T02:58:39.449Z,-3.33
2018-02-24T02:59:53.471Z,-3.37
2018-02-24T03:01:06.999Z,-3.33
2018-02-24T03:02:21.239Z,-3.33
2018-02-24T03:03:35.208Z,-3.27
2018-02-24T03:04:49.466Z,-3.36
2018-02-24T03:06:03.437Z,-3.32
2018-02-24T03:07:17.215Z,-3.37
2018-02-24T03:08:31.475Z,-3.3
2018-02-24T03:09:45.953Z,-3.33
2018-02-24T03:11:00.432Z,-3.4
2018-02-24T03:12:14.663Z,-3.29
2018-02-24T03:13:29.122Z,-3.44
2018-02-24T03:14:42.869Z,-3.43
2018-02-24T03:15:57.457Z,-3.44
2018-02-24T03:17:10.741Z,-3.29
2018-02-24T03:18:25.312Z,-3.32
2018-02-24T03:19:39.762Z,-3.38
2018-02-24T03:20:53.774Z,-3.36
2018-02-24T03:22:07.500Z,-3.3
2018-02-24T03:23:21.293Z,-3.36
2018-02-24T03:24:35.280Z,-3.36
2018-02-24T03:25:49.010Z,-3.36
2018-02-24T03:27:02.991Z,-3.36
2018-02-24T03:28:17.713Z,-3.32
2018-02-24T03:29:31.688Z,-3.36
2018-02-24T03:30:46.166Z,-3.33
2018-02-24T03:32:00.652Z,-3.33
2018-02-24T03:33:14.642Z,-3.3
2018-02-24T03:34:28.621Z,-3.33
2018-02-24T03:35:42.600Z,-3.32
2018-02-24T03:36:57.065Z,-3.25
2018-02-24T03:38:11.014Z,-3.33
2018-02-24T03:39:24.759Z,-3.25
2018-02-24T03:40:38.478Z,-3.27
2018-02-24T03:41:52.689Z,-3.27
2018-02-24T03:43:06.928Z,-3.22
2018-02-24T03:44:20.936Z,-3.26
2018-02-24T03:45:35.396Z,-3.3
2018-02-24T03:46:49.359Z,-3.32
2018-02-24T03:48:03.355Z,-3.26
2018-02-24T03:49:17.710Z,-3.23
2018-02-24T03:50:31.674Z,-3.3
2018-02-24T03:51:45.661Z,-3.27
2018-02-24T03:52:59.875Z,-3.32
2018-02-24T03:54:14.102Z,-3.36
2018-02-24T03:55:28.089Z,-3.38
2018-02-24T03:56:42.083Z,-3.33
2018-02-24T03:57:56.045Z,-3.29
2018-02-24T03:59:10.533Z,-3.32
2018-02-24T04:00:24.550Z,-3.43
2018-02-24T04:01:38.974Z,-3.43
2018-02-24T04:02:52.932Z,-3.4
2018-02-24T04:04:06.420Z,-3.44
2018-02-24T04:05:20.638Z,-3.47
2018-02-24T04:06:34.936Z,-3.51
2018-02-24T04:07:48.702Z,-3.5
2018-02-24T04:09:02.429Z,-3.51
2018-02-24T04:10:16.664Z,-3.56
2018-02-24T04:11:31.379Z,-3.47
2018-02-24T04:12:45.603Z,-3.5
2018-02-24T04:13:59.837Z,-3.51
2018-02-24T04:15:14.073Z,-3.46
2018-02-24T04:16:28.618Z,-3.51
2018-02-24T04:17:42.726Z,-3.5
2018-02-24T04:18:56.480Z,-3.46
2018-02-24T04:20:10.722Z,-3.5
2018-02-24T04:21:24.510Z,-3.43
2018-02-24T04:22:50.471Z,-3.56
2018-02-24T04:24:04.449Z,-3.53
2018-02-24T04:25:18.753Z,-3.47
2018-02-24T04:26:33.453Z,-3.48
2018-02-24T04:27:47.952Z,-3.51
2018-02-24T04:29:01.948Z,-3.56
2018-02-24T04:30:15.672Z,-3.48
2018-02-24T04:31:28.952Z,-3.56
2018-02-24T04:32:42.923Z,-3.56
2018-02-24T04:33:57.174Z,-3.51
2018-02-24T04:35:11.632Z,-3.56
2018-02-24T04:36:26.118Z,-3.55
2018-02-24T04:37:40.340Z,-3.56
2018-02-24T04:38:54.303Z,-3.51
2018-02-24T04:40:08.305Z,-3.56
2018-02-24T04:41:22.268Z,-3.58
2018-02-24T04:42:36.272Z,-3.58
2018-02-24T04:43:50.217Z,-3.61
2018-02-24T04:45:03.976Z,-3.53
2018-02-24T04:46:17.716Z,-3.74
2018-02-24T04:47:32.192Z,-3.64
2018-02-24T04:48:46.174Z,-3.68
2018-02-24T04:50:00.186Z,-3.55
2018-02-24T04:51:14.424Z,-3.68
2018-02-24T04:52:28.921Z,-3.64
2018-02-24T04:53:43.150Z,-3.66
2018-02-24T04:54:56.931Z,-3.71
2018-02-24T04:56:11.034Z,-3.62
2018-02-24T04:57:25.489Z,-3.81
2018-02-24T04:58:39.471Z,-3.62
2018-02-24T04:59:53.492Z,-3.71
2018-02-24T05:01:07.217Z,-3.65
2018-02-24T05:02:20.955Z,-3.64
2018-02-24T05:03:35.194Z,-3.65
2018-02-24T05:04:48.949Z,-3.68
2018-02-24T05:06:03.179Z,-3.83
2018-02-24T05:07:17.173Z,-3.75
2018-02-24T05:08:31.415Z,-3.69
2018-02-24T05:09:45.179Z,-3.78
2018-02-24T05:10:59.399Z,-3.78
2018-02-24T05:12:14.147Z,-3.77
2018-02-24T05:13:28.334Z,-3.84
2018-02-24T05:14:42.319Z,-3.58
2018-02-24T05:15:55.806Z,-3.78
2018-02-24T05:17:09.818Z,-3.83
2018-02-24T05:18:24.562Z,-3.84
2018-02-24T05:19:39.051Z,-3.81
2018-02-24T05:20:53.303Z,-3.84
2018-02-24T05:22:07.508Z,-3.69
2018-02-24T05:23:21.707Z,-3.68
2018-02-24T05:24:35.927Z,-3.69
2018-02-24T05:25:49.906Z,-3.68
2018-02-24T05:27:04.367Z,-3.8
2018-02-24T05:28:18.871Z,-3.65
2018-02-24T05:29:33.436Z,-3.66
2018-02-24T05:30:46.688Z,-3.81
2018-02-24T05:32:00.928Z,-3.77
2018-02-24T05:33:15.159Z,-3.62
2018-02-24T05:34:29.886Z,-3.77
2018-02-24T05:35:44.177Z,-3.74
2018-02-24T05:36:58.500Z,-3.77
2018-02-24T05:38:12.330Z,-3.83
2018-02-24T05:39:26.841Z,-3.64
2018-02-24T05:40:40.340Z,-3.66
2018-02-24T05:41:54.354Z,-3.83
2018-02-24T05:43:08.365Z,-3.65
2018-02-24T05:44:22.633Z,-3.66
2018-02-24T05:45:36.415Z,-3.8
2018-02-24T05:46:50.406Z,-3.75
2018-02-24T05:48:04.425Z,-3.81
2018-02-24T05:49:18.651Z,-3.78
2018-02-24T05:50:32.646Z,-3.81
2018-02-24T05:51:47.407Z,-3.81
2018-02-24T05:53:02.139Z,-3.77
2018-02-24T05:54:15.928Z,-3.83
2018-02-24T05:55:29.712Z,-3.78
2018-02-24T05:56:43.702Z,-3.8
2018-02-24T05:57:57.969Z,-3.78
2018-02-24T05:59:12.213Z,-3.75
2018-02-24T06:00:26.677Z,-3.83
2018-02-24T06:01:40.934Z,-3.75
2018-02-24T06:02:55.314Z,-3.8
2018-02-24T06:04:09.540Z,-3.74
2018-02-24T06:05:24.242Z,-3.78
2018-02-24T06:06:38.495Z,-3.65
2018-02-24T06:07:52.949Z,-3.71
2018-02-24T06:09:06.694Z,-3.75
2018-02-24T06:10:21.449Z,-3.65
2018-02-24T06:11:34.713Z,-3.8
2018-02-24T06:12:48.215Z,-3.68
2018-02-24T06:14:01.927Z,-3.8
2018-02-24T06:15:15.664Z,-3.71
2018-02-24T06:16:30.149Z,-3.65
2018-02-24T06:17:44.392Z,-3.81
2018-02-24T06:18:58.602Z,-3.71
2018-02-24T06:20:12.588Z,-3.81
2018-02-24T06:21:26.822Z,-3.75
2018-02-24T06:22:40.560Z,-3.59
2018-02-24T06:23:55.299Z,-3.75
2018-02-24T06:25:09.549Z,-3.64
2018-02-24T06:26:23.800Z,-3.66
2018-02-24T06:27:37.832Z,-3.56
2018-02-24T06:28:52.046Z,-3.55
2018-02-24T06:30:05.802Z,-3.56
2018-02-24T06:31:20.068Z,-3.58
2018-02-24T06:32:33.836Z,-3.58
2018-02-24T06:33:47.620Z,-3.58
2018-02-24T06:35:01.625Z,-3.51
2018-02-24T06:36:15.476Z,-3.56
2018-02-24T06:37:29.739Z,-3.56
2018-02-24T06:38:43.981Z,-3.51
2018-02-24T06:39:57.705Z,-3.51
2018-02-24T06:41:11.938Z,-3.55
2018-02-24T06:42:25.942Z,-3.48
2018-02-24T06:43:39.701Z,-3.51
2018-02-24T06:44:53.733Z,-3.46
2018-02-24T06:46:07.478Z,-3.51
2018-02-24T06:47:22.206Z,-3.5
2018-02-24T06:48:36.442Z,-3.38
2018-02-24T06:49:50.443Z,-3.43
2018-02-24T06:51:04.672Z,-3.48
2018-02-24T06:52:19.136Z,-3.37
2018-02-24T06:53:33.373Z,-3.51
2018-02-24T06:54:47.990Z,-3.53
2018-02-24T06:56:01.973Z,-3.53
2018-02-24T06:57:16.488Z,-3.53
2018-02-24T06:58:30.744Z,-3.51
2018-02-24T06:59:44.973Z,-3.41
2018-02-24T07:00:59.184Z,-3.4
2018-02-24T07:02:13.201Z,-3.41
2018-02-24T07:03:27.183Z,-3.41
2018-02-24T07:04:41.428Z,-3.3
2018-02-24T07:05:55.411Z,-3.3
2018-02-24T07:07:09.900Z,-3.32
2018-02-24T07:08:24.390Z,-3.26
2018-02-24T07:09:38.486Z,-3.33
2018-02-24T07:10:52.498Z,-3.29
2018-02-24T07:12:06.263Z,-3.27
2018-02-24T07:13:20.288Z,-3.2
2018-02-24T07:14:34.503Z,-3.22
2018-02-24T07:15:48.722Z,-3.11
2018-02-24T07:17:02.962Z,-3.2
2018-02-24T07:18:17.196Z,-3.23
2018-02-24T07:19:30.751Z,-3.08
2018-02-24T07:20:44.536Z,-3.17
2018-02-24T07:21:58.538Z,-3.12
2018-02-24T07:23:12.761Z,-2.94
2018-02-24T07:24:26.770Z,-3.05
2018-02-24T07:25:40.814Z,-2.9
2018-02-24T07:26:54.573Z,-2.87
2018-02-24T07:28:09.128Z,-2.93
2018-02-24T07:29:23.149Z,-2.89
2018-02-24T07:30:36.918Z,-2.96
2018-02-24T07:31:50.901Z,-2.83
2018-02-24T07:33:04.889Z,-2.84
2018-02-24T07:34:19.126Z,-2.8
2018-02-24T07:35:33.124Z,-2.83
2018-02-24T07:36:47.627Z,-2.75
2018-02-24T07:38:02.332Z,-2.72
2018-02-24T07:39:16.592Z,-2.63
2018-02-24T07:40:30.884Z,-2.58
2018-02-24T07:41:45.139Z,-2.62
2018-02-24T07:42:59.735Z,-2.61
2018-02-24T07:44:13.785Z,-2.62
2018-02-24T07:45:27.745Z,-2.54
2018-02-24T07:46:41.559Z,-2.57
2018-02-24T07:47:55.840Z,-2.45
2018-02-24T07:49:10.199Z,-2.52
2018-02-24T07:50:24.204Z,-2.45
2018-02-24T07:51:38.241Z,-2.39
2018-02-24T07:52:52.006Z,-2.36
2018-02-24T07:54:06.368Z,-2.36
2018-02-24T07:55:20.175Z,-2.25
2018-02-24T07:56:34.469Z,-2.22
2018-02-24T07:57:49.213Z,-2.22
2018-02-24T07:59:02.959Z,-2.18
2018-02-24T08:00:17.478Z,-2.15
2018-02-24T08:01:31.282Z,-2.15
2018-02-24T08:02:45.023Z,-2.13
2018-02-24T08:03:59.313Z,-1.99
2018-02-24T08:05:13.543Z,-1.97
2018-02-24T08:06:28.262Z,-2.04
2018-02-24T08:07:42.031Z,-1.96
2018-02-24T08:08:56.557Z,-1.87
2018-02-24T08:10:10.566Z,-1.86
2018-02-24T08:11:24.815Z,-1.93
2018-02-24T08:12:39.323Z,-1.79
2018-02-24T08:13:53.354Z,-1.71
2018-02-24T08:15:07.147Z,-1.75
2018-02-24T08:16:21.537Z,-1.72
2018-02-24T08:17:35.862Z,-1.63
2018-02-24T08:18:49.832Z,-1.66
2018-02-24T08:20:04.124Z,-1.56
2018-02-24T08:21:18.233Z,-1.53
2018-02-24T08:22:32.488Z,-1.51
2018-02-24T08:23:46.525Z,-1.42
2018-02-24T08:25:00.532Z,-1.35
2018-02-24T08:26:14.561Z,-1.53
2018-02-24T08:27:28.793Z,-1.46
2018-02-24T08:28:43.060Z,-1.35
2018-02-24T08:29:57.569Z,-1.29
2018-02-24T08:31:11.784Z,-1.27
2018-02-24T08:32:26.306Z,-1.39
2018-02-24T08:33:40.576Z,-1.36
2018-02-24T08:34:54.843Z,-1.25
2018-02-24T08:36:08.876Z,-1.17
2018-02-24T08:37:22.883Z,-1.11
2018-02-24T08:38:36.359Z,-1.22
2018-02-24T08:39:49.840Z,-1.14
2018-02-24T08:41:04.119Z,-1.11
2018-02-24T08:42:17.641Z,-1.15
2018-02-24T08:43:31.146Z,-1.09
2018-02-24T08:44:45.116Z,-0.94
2018-02-24T08:45:59.196Z,-0.96
2018-02-24T08:47:12.946Z,-0.93
2018-02-24T08:48:27.004Z,-0.96
2018-02-24T08:49:40.881Z,-0.89
2018-02-24T08:50:54.399Z,-0.96
2018-02-24T08:52:08.412Z,-0.81
2018-02-24T08:53:23.163Z,-0.74
2018-02-24T08:54:37.177Z,-0.7
2018-02-24T08:55:51.210Z,-0.56
2018-02-24T08:57:05.476Z,-0.54
2018-02-24T08:58:19.437Z,-0.46
2018-02-24T08:59:32.927Z,-0.36
2018-02-24T09:00:47.163Z,-0.42
2018-02-24T09:02:01.888Z,-0.39
2018-02-24T09:03:16.434Z,-0.33
2018-02-24T09:04:30.671Z,-0.15
2018-02-24T09:05:44.932Z,-0.07
2018-02-24T09:06:58.970Z,-0.1
2018-02-24T09:08:13.236Z,-0.03
2018-02-24T09:09:27.474Z,-0.05
2018-02-24T09:10:41.312Z,0.09
2018-02-24T09:11:55.316Z,0.09
2018-02-24T09:13:09.682Z,0.08
2018-02-24T09:14:23.709Z,0.2
2018-02-24T09:15:37.463Z,0.19
2018-02-24T09:16:51.268Z,0.27
2018-02-24T09:18:06.013Z,0.31
2018-02-24T09:19:20.290Z,0.33
2018-02-24T09:20:34.544Z,0.34
2018-02-24T09:21:48.825Z,0.33
2018-02-24T09:23:02.453Z,0.4
2018-02-24T09:24:17.258Z,0.51
2018-02-24T09:25:31.012Z,0.49
2018-02-24T09:26:45.316Z,0.64
2018-02-24T09:27:59.288Z,0.7
2018-02-24T09:29:13.853Z,0.81
2018-02-24T09:30:27.633Z,0.91
2018-02-24T09:31:41.451Z,1.07
2018-02-24T09:32:55.475Z,1.03
2018-02-24T09:34:09.749Z,1.16
2018-02-24T09:35:23.273Z,1.18
2018-02-24T09:36:37.246Z,1.21
2018-02-24T09:37:51.003Z,1.28
2018-02-24T09:39:05.535Z,1.38
2018-02-24T09:40:19.540Z,1.4
2018-02-24T09:41:34.263Z,1.38
2018-02-24T09:42:48.550Z,1.32
2018-02-24T09:44:02.881Z,1.3
2018-02-24T09:45:17.116Z,1.5
2018-02-24T09:46:31.647Z,1.48
2018-02-24T09:47:45.877Z,1.42
2018-02-24T09:49:00.133Z,1.5
2018-02-24T09:50:14.631Z,1.58
2018-02-24T09:51:28.878Z,1.66
2018-02-24T09:52:43.381Z,1.7
2018-02-24T09:53:56.879Z,1.67
2018-02-24T09:55:10.631Z,1.61
2018-02-24T09:56:24.768Z,1.67
2018-02-24T09:57:38.759Z,1.82
2018-02-24T09:58:52.302Z,1.81
2018-02-24T10:00:06.796Z,1.92
2018-02-24T10:01:20.865Z,2
2018-02-24T10:02:35.167Z,2
2018-02-24T10:03:48.739Z,2.14
2018-02-24T10:05:02.333Z,2.07
2018-02-24T10:06:16.405Z,2.05
2018-02-24T10:07:30.617Z,2.12
2018-02-24T10:08:44.755Z,2.1
2018-02-24T10:09:59.364Z,2.22
2018-02-24T10:11:13.889Z,2.28
2018-02-24T10:12:28.169Z,2.36
2018-02-24T10:13:41.998Z,2.37
2018-02-24T10:14:56.032Z,2.47
2018-02-24T10:16:10.700Z,2.59
2018-02-24T10:17:24.976Z,2.69
2018-02-24T10:18:39.287Z,2.79
2018-02-24T10:19:53.775Z,2.9
2018-02-24T10:21:08.012Z,2.95
2018-02-24T10:22:22.249Z,3
2018-02-24T10:23:36.714Z,2.98
2018-02-24T10:24:51.188Z,3.11
2018-02-24T10:26:05.999Z,3.08
2018-02-24T10:27:20.529Z,3.12
2018-02-24T10:28:34.803Z,3.13
2018-02-24T10:29:49.445Z,3.16
2018-02-24T10:31:03.744Z,3.16
2018-02-24T10:32:17.471Z,3.22
2018-02-24T10:33:31.980Z,3.29
2018-02-24T10:34:46.509Z,3.29
2018-02-24T10:36:00.319Z,3.4
2018-02-24T10:37:14.552Z,3.4
2018-02-24T10:38:28.871Z,3.41
2018-02-24T10:39:43.159Z,3.4
2018-02-24T10:40:57.212Z,3.4
2018-02-24T10:42:11.590Z,3.36
2018-02-24T10:43:25.630Z,3.41
2018-02-24T10:44:40.191Z,3.64
2018-02-24T10:45:54.719Z,3.58
2018-02-24T10:47:09.028Z,3.61
2018-02-24T10:48:23.331Z,3.66
2018-02-24T10:49:37.640Z,3.76
2018-02-24T10:50:51.872Z,3.73
2018-02-24T10:52:05.912Z,3.82
2018-02-24T10:53:20.155Z,3.85
2018-02-24T10:54:34.386Z,3.86
2018-02-24T10:55:48.163Z,3.92
2018-02-24T10:57:02.909Z,3.96
2018-02-24T10:58:16.909Z,3.95
2018-02-24T10:59:31.382Z,3.95
2018-02-24T11:00:45.384Z,4
2018-02-24T11:02:00.165Z,4.12
2018-02-24T11:03:14.298Z,4.06
2018-02-24T11:04:28.577Z,4.03
2018-02-24T11:05:42.565Z,4.13
2018-02-24T11:06:57.202Z,4.1
2018-02-24T11:08:11.946Z,4.06
2018-02-24T11:09:26.472Z,4.06
2018-02-24T11:10:40.755Z,4
2018-02-24T11:11:54.773Z,4.07
2018-02-24T11:13:08.590Z,4.18
2018-02-24T11:14:23.167Z,4.28
2018-02-24T11:15:36.952Z,4.27
2018-02-24T11:16:50.728Z,4.3
2018-02-24T11:18:05.505Z,4.28
2018-02-24T11:19:19.815Z,4.27
2018-02-24T11:20:33.831Z,4.27
2018-02-24T11:21:47.844Z,4.22
2018-02-24T11:23:02.243Z,4.18
2018-02-24T11:24:16.275Z,4.2
2018-02-24T11:25:30.295Z,4.28
2018-02-24T11:26:44.569Z,4.24
2018-02-24T11:27:58.840Z,4.32
2018-02-24T11:29:13.655Z,4.32
2018-02-24T11:30:28.200Z,4.16
2018-02-24T11:31:42.269Z,4.2
2018-02-24T11:32:56.547Z,4.22
2018-02-24T11:34:10.075Z,4.36
2018-02-24T11:35:24.050Z,4.39
2018-02-24T11:36:38.405Z,4.46
2018-02-24T11:37:52.955Z,4.49
2018-02-24T11:39:07.472Z,4.53
2018-02-24T11:40:21.248Z,4.49
2018-02-24T11:41:35.548Z,4.57
2018-02-24T11:42:49.783Z,4.61
2018-02-24T11:44:03.804Z,4.63
2018-02-24T11:45:17.571Z,4.63
2018-02-24T11:46:31.378Z,4.58
2018-02-24T11:47:45.488Z,4.52
2018-02-24T11:48:59.776Z,4.45
2018-02-24T11:50:14.095Z,4.45
2018-02-24T11:51:28.108Z,4.56
2018-02-24T11:52:42.406Z,4.5
2018-02-24T11:53:56.170Z,4.53
2018-02-24T11:55:09.945Z,4.49
2018-02-24T11:56:23.475Z,4.6
2018-02-24T11:57:37.713Z,4.53
2018-02-24T11:58:51.762Z,4.57
2018-02-24T12:00:05.842Z,4.64
2018-02-24T12:01:19.854Z,4.7
2018-02-24T12:02:34.058Z,4.66
2018-02-24T12:03:48.564Z,4.66
2018-02-24T12:05:02.620Z,4.56
2018-02-24T12:06:17.377Z,4.66
2018-02-24T12:07:31.647Z,4.57
2018-02-24T12:08:45.974Z,4.7
2018-02-24T12:10:00.573Z,4.68
2018-02-24T12:11:14.670Z,4.63
2018-02-24T12:12:29.446Z,4.49
2018-02-24T12:13:43.524Z,4.5
2018-02-24T12:14:57.672Z,4.57
2018-02-24T12:16:11.738Z,4.67
2018-02-24T12:17:25.552Z,4.6
2018-02-24T12:18:39.827Z,4.61
2018-02-24T12:19:54.145Z,4.58
2018-02-24T12:21:08.394Z,4.57
2018-02-24T12:22:23.172Z,4.52
2018-02-24T12:23:37.483Z,4.61
2018-02-24T12:24:52.020Z,4.64
2018-02-24T12:26:05.790Z,4.71
2018-02-24T12:27:20.293Z,4.66
2018-02-24T12:28:34.354Z,4.5
2018-02-24T12:29:47.871Z,4.5
2018-02-24T12:31:02.142Z,4.53
2018-02-24T12:32:16.427Z,4.66
2018-02-24T12:33:30.690Z,4.71
2018-02-24T12:34:44.702Z,4.71
2018-02-24T12:35:58.497Z,4.56
2018-02-24T12:37:12.792Z,4.52
2018-02-24T12:38:26.600Z,4.49
2018-02-24T12:39:40.663Z,4.53
2018-02-24T12:40:54.696Z,4.52
2018-02-24T12:42:09.235Z,4.68
2018-02-24T12:43:23.392Z,4.53
2018-02-24T12:44:37.190Z,4.48
2018-02-24T12:45:51.712Z,4.53
2018-02-24T12:47:05.954Z,4.66
2018-02-24T12:48:20.019Z,4.49
2018-02-24T12:49:34.092Z,4.3
2018-02-24T12:50:48.403Z,4.43
2018-02-24T12:52:01.969Z,4.32
2018-02-24T12:53:16.269Z,4.34
2018-02-24T12:54:30.835Z,4.48
2018-02-24T12:55:45.151Z,4.25
2018-02-24T12:56:59.455Z,4.45
2018-02-24T12:58:14.057Z,4.38
2018-02-24T12:59:27.852Z,4.3
2018-02-24T13:00:42.474Z,4.45
2018-02-24T13:01:56.559Z,4.52
2018-02-24T13:03:10.663Z,4.56
2018-02-24T13:04:24.949Z,4.45
2018-02-24T13:05:39.236Z,4.57
2018-02-24T13:06:53.523Z,4.48
2018-02-24T13:08:08.322Z,4.45
2018-02-24T13:09:22.119Z,4.32
2018-02-24T13:10:36.204Z,4.36
2018-02-24T13:11:50.539Z,4.38
2018-02-24T13:13:04.874Z,4.56
2018-02-24T13:14:18.854Z,4.52
2018-02-24T13:15:33.454Z,4.52
2018-02-24T13:16:47.841Z,4.53
2018-02-24T13:18:01.636Z,4.46
2018-02-24T13:19:15.983Z,4.48
2018-02-24T13:20:30.088Z,4.6
2018-02-24T13:21:44.428Z,4.56
2018-02-24T13:22:58.738Z,4.53
2018-02-24T13:24:13.025Z,4.46
2018-02-24T13:25:27.219Z,4.42
2018-02-24T13:26:41.114Z,4.52
2018-02-24T13:27:55.437Z,4.48
2018-02-24T13:29:09.768Z,4.46
2018-02-24T13:30:23.655Z,4.52
2018-02-24T13:31:38.227Z,4.45
2018-02-24T13:32:53.036Z,4.49
2018-02-24T13:34:07.398Z,4.45
2018-02-24T13:35:21.694Z,4.28
2018-02-24T13:36:36.521Z,4.31
2018-02-24T13:37:50.901Z,4.43
2018-02-24T13:39:05.700Z,4.42
2018-02-24T13:40:20.253Z,4.27
2018-02-24T13:41:34.993Z,4.32
2018-02-24T13:42:49.299Z,4.4
2018-02-24T13:44:03.844Z,4.3
2018-02-24T13:45:18.129Z,4.42
2018-02-24T13:46:32.177Z,4.42
2018-02-24T13:47:46.222Z,4.3
2018-02-24T13:49:00.279Z,4.28
2018-02-24T13:50:13.932Z,4.14
2018-02-24T13:51:27.757Z,4.22
2018-02-24T13:52:41.341Z,4.25
2018-02-24T13:53:55.905Z,4.16
2018-02-24T13:55:10.541Z,4.3
2018-02-24T13:56:24.871Z,4.34
2018-02-24T13:57:38.921Z,4.25
2018-02-24T13:58:53.222Z,4.14
2018-02-24T14:00:07.517Z,4.14
2018-02-24T14:01:21.819Z,4.14
2018-02-24T14:02:36.410Z,4.13
2018-02-24T14:03:50.771Z,4.04
2018-02-24T14:05:04.637Z,4.07
2018-02-24T14:06:18.463Z,4.09
2018-02-24T14:07:32.562Z,4.03
2018-02-24T14:08:47.393Z,3.94
2018-02-24T14:10:01.461Z,3.99
2018-02-24T14:11:15.636Z,3.84
2018-02-24T14:12:29.960Z,3.91
2018-02-24T14:13:45.003Z,3.88
2018-02-24T14:14:59.648Z,3.94
2018-02-24T14:16:13.769Z,4.02
2018-02-24T14:17:27.609Z,4.04
2018-02-24T14:18:42.050Z,4
2018-02-24T14:19:56.487Z,4
2018-02-24T14:21:10.594Z,3.86
2018-02-24T14:22:25.322Z,3.88
2018-02-24T14:23:39.709Z,3.78
2018-02-24T14:24:54.466Z,3.7
2018-02-24T14:26:08.750Z,3.77
2018-02-24T14:27:22.797Z,3.82
2018-02-24T14:28:36.632Z,3.73
2018-02-24T14:29:51.343Z,3.76
2018-02-24T14:31:06.572Z,3.59
2018-02-24T14:32:21.118Z,3.64
2018-02-24T14:33:35.921Z,3.74
2018-02-24T14:34:50.446Z,3.77
2018-02-24T14:36:04.990Z,3.77
2018-02-24T14:37:19.507Z,3.73
2018-02-24T14:38:33.863Z,3.63
2018-02-24T14:39:47.912Z,3.7
2018-02-24T14:41:02.836Z,3.68
2018-02-24T14:42:17.656Z,3.73
2018-02-24T14:43:31.397Z,3.66
2018-02-24T14:44:45.713Z,3.67
2018-02-24T14:45:59.740Z,3.77
2018-02-24T14:47:14.229Z,3.86
2018-02-24T14:48:28.770Z,3.86
2018-02-24T14:49:42.577Z,3.88
2018-02-24T14:50:56.944Z,3.78
2018-02-24T14:52:11.704Z,3.67
2018-02-24T14:53:25.974Z,3.67
2018-02-24T14:54:40.007Z,3.66
2018-02-24T14:55:54.499Z,3.68
2018-02-24T14:57:09.155Z,3.77
2018-02-24T14:58:23.211Z,3.71
2018-02-24T14:59:37.466Z,3.58
2018-02-24T15:00:50.991Z,3.5
2018-02-24T15:02:04.798Z,3.41
2018-02-24T15:03:19.028Z,3.41
2018-02-24T15:04:32.822Z,3.36
2018-02-24T15:05:46.834Z,3.45
2018-02-24T15:07:01.404Z,3.45
2018-02-24T15:08:15.716Z,3.4
2018-02-24T15:09:30.554Z,3.4
2018-02-24T15:10:45.229Z,3.29
2018-02-24T15:11:59.310Z,3.29
2018-02-24T15:13:13.661Z,3.27
2018-02-24T15:14:27.461Z,3.27
2018-02-24T15:15:42.093Z,3.36
2018-02-24T15:16:56.153Z,3.36
2018-02-24T15:18:10.246Z,3.37
2018-02-24T15:19:24.575Z,3.26
2018-02-24T15:20:38.401Z,3.3
2018-02-24T15:21:52.442Z,3.15
2018-02-24T15:23:06.750Z,3.16
2018-02-24T15:24:21.255Z,3.11
2018-02-24T15:25:35.550Z,3.05
2018-02-24T15:26:50.098Z,3.01
2018-02-24T15:28:04.353Z,2.98
2018-02-24T15:29:18.869Z,2.97
2018-02-24T15:30:33.504Z,2.95
2018-02-24T15:31:47.296Z,2.97
2018-02-24T15:33:02.056Z,3.01
2018-02-24T15:34:16.586Z,2.9
2018-02-24T15:35:30.868Z,2.72
2018-02-24T15:36:44.862Z,2.61
2018-02-24T15:37:59.114Z,2.7
2018-02-24T15:39:13.701Z,2.58
2018-02-24T15:40:28.215Z,2.61
2018-02-24T15:41:42.938Z,2.52
2018-02-24T15:42:57.216Z,2.55
2018-02-24T15:44:11.991Z,2.54
2018-02-24T15:45:25.796Z,2.5
2018-02-24T15:46:39.831Z,2.55
2018-02-24T15:47:53.816Z,2.51
2018-02-24T15:49:07.804Z,2.55
2018-02-24T15:50:21.576Z,2.47
2018-02-24T15:51:35.795Z,2.39
2018-02-24T15:52:50.349Z,2.36
2018-02-24T15:54:04.589Z,2.37
2018-02-24T15:55:18.374Z,2.37
2018-02-24T15:56:32.642Z,2.33
2018-02-24T15:57:47.189Z,2.39
2018-02-24T15:59:01.448Z,2.44
2018-02-24T16:00:15.931Z,2.37
2018-02-24T16:01:30.477Z,2.43
2018-02-24T16:02:44.816Z,2.33
2018-02-24T16:03:59.167Z,2.26
2018-02-24T16:05:13.949Z,2.32
2018-02-24T16:06:28.295Z,2.21
2018-02-24T16:07:42.547Z,2.19
2018-02-24T16:08:56.891Z,2.18
2018-02-24T16:10:11.403Z,2.21
2018-02-24T16:11:25.696Z,2.08
2018-02-24T16:12:40.235Z,2.15
2018-02-24T16:13:54.248Z,2.14